Sacramento, California
Traffic Map
Current Weather Conditions
Sacramento, California
Clear
Clear
17°
Feels Like: 17°
Wind Chill: 17° Ceiling: Unl
Heat Index: 17° Visibility: 10mi
Dew Point: 12° Wind: 5mph
Humidity: 75% Direction: 180° (S)
Pressure: 29.92in Gusts: 0mph
Raw Report DataKSAC 250853Z AUTO 18004KT 10SM CLR 17/12 A2992 RMK AO2 SLP132 T01670122 51009
Traffic Incident Summary
Active as of:
Severity:
Category:
InformationThere was an issue retrieving the traffic information for this location. Please try a different location or try again shortly.
Advertisements
Track Severe Weather on mobile